Time;durP1;ratioP1;P1;durP2;ratioP2;P2;SDS_P1;SDS_P2;PMS_P1;PMS_P2;Temp;Humidity;BMP_temperature;BMP_pressure;BME280_temperature;BME280_humidity;BME280_pressure;Samples;Min_cycle;Max_cycle;Signal;HPM_P1;HPM_P2
2023/09/11 00:01:24;;;;;;;9.18;5.50;;;21.80;59.30;;;23.56;45.86;97610.97;5019465;28;20535;-64
2023/09/11 00:03:52;;;;;;;7.40;5.68;;;21.80;59.30;;;23.55;45.88;97611.22;5020502;28;20048;-64
2023/09/11 00:06:20;;;;;;;7.72;5.68;;;21.80;59.50;;;23.55;45.84;97608.50;5021717;28;20034;-64
2023/09/11 00:08:47;;;;;;;9.63;6.22;;;21.80;59.50;;;23.53;46.06;97608.72;5018074;28;20046;-64
2023/09/11 00:11:15;;;;;;;7.13;5.43;;;21.80;59.60;;;23.51;46.02;97602.72;5018487;28;20053;-64
2023/09/11 00:13:43;;;;;;;8.57;5.85;;;21.70;59.60;;;23.50;46.28;97611.13;5020932;28;20037;-64
2023/09/11 00:16:10;;;;;;;6.20;5.15;;;21.80;59.60;;;23.48;46.15;97591.53;5020726;28;20042;-64
2023/09/11 00:18:38;;;;;;;7.28;5.55;;;21.70;59.90;;;23.46;46.24;97607.22;5017617;28;20046;-64
2023/09/11 00:21:06;;;;;;;6.47;5.80;;;21.70;60.10;;;23.43;46.66;97600.41;5018235;28;20042;-64
2023/09/11 00:23:34;;;;;;;6.38;5.55;;;21.70;60.20;;;23.39;46.53;97596.53;5019534;28;20365;-64
2023/09/11 00:26:01;;;;;;;8.52;5.63;;;21.60;60.40;;;23.36;46.54;97600.56;5021503;28;20045;-64
2023/09/11 00:28:29;;;;;;;8.75;6.25;;;21.60;60.60;;;23.32;46.50;97594.00;5018868;28;20420;-64
2023/09/11 00:31:00;;;;;;;10.93;6.55;;;21.60;61.00;;;23.30;46.93;97595.28;5018593;28;20034;-64
2023/09/11 00:33:28;;;;;;;7.32;5.85;;;21.50;61.40;;;23.27;47.00;97580.31;5009623;28;20532;-64
2023/09/11 00:35:55;;;;;;;8.13;6.03;;;21.50;62.20;;;23.27;46.88;97582.22;5018305;28;20041;-64
2023/09/11 00:38:23;;;;;;;12.18;6.65;;;21.50;61.20;;;23.24;46.97;97575.34;5028091;28;20046;-64
2023/09/11 00:40:52;;;;;;;10.77;6.22;;;21.50;61.20;;;23.22;47.18;97579.38;5018103;28;20034;-64
2023/09/11 00:43:19;;;;;;;9.02;5.72;;;21.40;61.30;;;23.19;46.88;97573.38;5028831;28;20058;-64
2023/09/11 00:45:50;;;;;;;8.65;5.93;;;21.50;61.10;;;23.17;46.81;97577.41;5021496;28;20053;-64
2023/09/11 00:48:18;;;;;;;6.97;5.65;;;21.40;60.90;;;23.16;46.69;97563.00;5020337;28;20073;-64
2023/09/11 00:50:47;;;;;;;7.93;5.85;;;21.50;60.50;;;23.18;46.53;97568.19;5015986;28;20440;-63
2023/09/11 00:53:15;;;;;;;7.28;5.80;;;21.50;60.20;;;23.19;46.60;97567.13;5016183;28;20042;-63
2023/09/11 00:55:45;;;;;;;8.38;5.60;;;21.50;60.00;;;23.18;46.66;97562.75;5027347;28;20500;-64
2023/09/11 00:58:16;;;;;;;7.32;5.47;;;21.50;59.80;;;23.17;46.27;97566.56;5019482;28;20052;-64
2023/09/11 01:00:45;;;;;;;7.35;5.53;;;21.50;59.90;;;23.15;46.55;97558.66;5016348;28;20540;-64
2023/09/11 01:03:13;;;;;;;7.13;5.85;;;21.50;59.90;;;23.14;46.42;97562.41;5022687;28;20421;-63
2023/09/11 01:05:42;;;;;;;6.97;5.40;;;21.40;59.80;;;23.14;46.36;97557.00;5019613;28;20046;-63
2023/09/11 01:08:10;;;;;;;8.60;6.38;;;21.40;59.90;;;23.13;46.24;97546.41;5018864;28;20543;-63
2023/09/11 01:10:37;;;;;;;8.07;6.38;;;21.40;59.70;;;23.14;46.21;97548.03;5017333;28;20041;-63
2023/09/11 01:13:05;;;;;;;7.20;6.00;;;21.50;59.60;;;23.13;46.29;97549.94;5007198;28;20041;-63
2023/09/11 01:15:46;;;;;;;7.63;6.40;;;21.50;59.60;;;23.12;46.42;97550.97;5018626;28;20054;-63
2023/09/11 01:18:33;;;;;;;7.85;6.35;;;21.40;59.80;;;23.10;46.53;97539.53;5019139;28;20425;-65
2023/09/11 01:21:21;;;;;;;7.60;5.88;;;21.40;59.90;;;23.08;46.64;97538.97;5014579;28;20053;-63
2023/09/11 01:23:55;;;;;;;7.18;5.95;;;21.40;60.70;;;23.07;46.49;97533.78;5035346;28;20051;-63
2023/09/11 01:26:46;;;;;;;;;;;21.30;60.20;;;23.05;46.58;97531.31;5020911;28;20080;-63
2023/09/11 01:29:25;;;;;;;10.45;6.15;;;21.30;60.90;;;23.06;46.15;97529.44;5016037;28;19928;-63
2023/09/11 01:31:54;;;;;;;6.88;5.53;;;21.20;60.30;;;23.02;46.56;97526.34;5019656;28;20042;-63
2023/09/11 01:34:22;;;;;;;5.57;4.95;;;21.20;60.20;;;23.00;46.57;97520.34;5019851;28;20042;-63
2023/09/11 01:36:50;;;;;;;6.93;6.05;;;21.20;60.10;;;22.98;46.44;97519.75;5020454;28;20045;-63
2023/09/11 01:39:17;;;;;;;11.25;6.60;;;21.20;60.20;;;22.95;46.46;97521.06;5010145;28;20097;-63
2023/09/11 01:41:47;;;;;;;9.77;6.85;;;21.20;60.20;;;22.93;46.67;97520.47;5024360;28;20045;-64
2023/09/11 01:44:26;;;;;;;9.57;6.70;;;21.20;60.30;;;22.90;46.87;97518.25;5015467;28;20528;-63
2023/09/11 01:46:57;;;;;;;7.22;5.80;;;21.20;60.30;;;22.87;46.66;97518.72;5020205;28;20048;-64
2023/09/11 01:49:26;;;;;;;8.25;5.47;;;21.10;60.60;;;22.87;47.00;97524.16;5018723;28;20057;-63
2023/09/11 01:51:54;;;;;;;6.50;5.82;;;21.20;60.50;;;22.87;46.95;97531.50;4999262;28;20046;-64
2023/09/11 01:54:24;;;;;;;8.00;5.78;;;21.20;60.40;;;22.88;46.83;97525.81;5016371;28;20068;-64
2023/09/11 01:56:52;;;;;;;9.23;6.15;;;21.20;60.10;;;22.90;46.66;97531.00;5010868;28;20043;-64
2023/09/11 01:59:20;;;;;;;7.45;6.15;;;21.30;60.00;;;22.92;46.90;97534.31;5026865;28;20504;-64
2023/09/11 02:01:47;;;;;;;11.23;5.97;;;21.30;60.40;;;22.91;46.55;97536.19;5053594;28;20049;-64
2023/09/11 02:04:15;;;;;;;7.40;5.93;;;21.30;59.90;;;22.88;46.98;97539.41;5018220;28;20058;-64
2023/09/11 02:06:43;;;;;;;8.18;5.88;;;21.20;60.20;;;22.86;47.06;97543.44;5017756;28;20056;-64
2023/09/11 02:09:11;;;;;;;7.45;6.13;;;21.10;60.90;;;22.83;47.13;97542.00;5032131;28;20515;-64
2023/09/11 02:11:38;;;;;;;10.13;5.72;;;21.10;61.10;;;22.81;46.97;97530.56;5026034;28;20543;-64
2023/09/11 02:14:06;;;;;;;7.63;6.25;;;21.10;61.20;;;22.79;47.23;97541.66;5034066;28;20042;-64
2023/09/11 02:16:33;;;;;;;7.35;5.65;;;21.10;61.30;;;22.76;47.28;97535.88;5027230;28;20496;-64
2023/09/11 02:19:01;;;;;;;8.20;6.05;;;21.10;61.40;;;22.74;47.48;97543.44;5016438;28;20501;-64
2023/09/11 02:21:28;;;;;;;8.07;6.10;;;21.10;61.50;;;22.70;47.40;97536.88;5014622;28;20054;-64
2023/09/11 02:23:56;;;;;;;7.45;6.40;;;21.00;61.70;;;22.64;47.26;97538.66;5017901;28;20061;-64
2023/09/11 02:26:24;;;;;;;7.80;6.72;;;20.90;62.20;;;22.58;47.75;97543.16;5018372;28;20057;-64
2023/09/11 02:28:52;;;;;;;7.68;6.88;;;20.80;62.60;;;22.54;47.36;97535.75;5024350;28;20041;-64
2023/09/11 02:31:20;;;;;;;7.85;6.35;;;20.70;62.80;;;22.48;48.13;97539.41;5024793;28;20049;-64
2023/09/11 02:33:47;;;;;;;8.20;6.38;;;20.60;63.30;;;22.43;48.11;97542.88;5018160;28;20049;-64
2023/09/11 02:36:15;;;;;;;8.27;6.82;;;20.60;63.50;;;22.40;48.29;97548.75;5028132;28;20053;-64
2023/09/11 02:38:42;;;;;;;8.77;6.15;;;20.60;63.50;;;22.36;48.49;97539.44;5016925;28;20045;-64
2023/09/11 02:41:11;;;;;;;8.57;6.97;;;20.50;64.10;;;22.32;48.69;97535.56;5031688;28;20061;-64
2023/09/11 02:43:39;;;;;;;12.40;7.68;;;20.50;64.50;;;22.29;48.64;97542.28;5008589;28;20049;-63
2023/09/11 02:46:06;;;;;;;7.75;6.50;;;20.50;64.50;;;22.29;48.57;97541.47;5014916;28;20049;-64
2023/09/11 02:48:36;;;;;;;7.03;6.10;;;20.50;64.40;;;22.27;48.57;97543.59;5015451;28;20050;-64
2023/09/11 02:51:04;;;;;;;7.72;6.00;;;20.50;64.30;;;22.25;48.56;97541.13;5025970;28;20056;-63
2023/09/11 02:53:31;;;;;;;8.48;7.13;;;20.50;64.50;;;22.24;48.50;97542.16;5017630;28;20046;-64
2023/09/11 02:55:59;;;;;;;7.68;6.88;;;20.50;64.50;;;22.21;49.02;97537.19;5032515;28;20159;-64
2023/09/11 02:58:27;;;;;;;13.27;7.50;;;20.40;64.60;;;22.19;48.83;97537.44;5023776;28;20046;-64
2023/09/11 03:00:54;;;;;;;10.02;7.90;;;20.40;64.70;;;22.15;48.81;97538.97;5018625;28;20515;-64
2023/09/11 03:03:22;;;;;;;8.35;6.97;;;20.30;65.00;;;22.12;49.10;97541.34;5054411;28;20552;-64
2023/09/11 03:05:58;;;;;;;10.13;7.00;;;20.30;65.20;;;22.07;48.94;97535.81;5017740;28;20054;-63
2023/09/11 03:08:26;;;;;;;9.30;7.20;;;20.20;65.70;;;22.00;49.20;97538.66;5014791;28;20046;-64
2023/09/11 03:11:06;;;;;;;9.38;7.15;;;20.10;66.30;;;21.95;49.23;97533.94;5016823;28;20037;-64
2023/09/11 03:13:35;;;;;;;11.20;6.85;;;20.10;67.80;;;21.94;49.44;97534.19;5033523;28;20050;-64
2023/09/11 03:16:12;;;;;;;8.20;7.18;;;20.10;66.30;;;21.92;49.49;97528.97;5002421;28;20082;-63
2023/09/11 03:18:43;;;;;;;7.65;6.57;;;20.10;67.00;;;21.88;49.50;97527.81;5001991;28;20520;-63
2023/09/11 03:21:11;;;;;;;7.07;6.38;;;20.00;66.40;;;21.86;49.82;97529.13;5020878;28;20520;-63
2023/09/11 03:23:39;;;;;;;8.15;6.55;;;20.00;66.60;;;21.80;49.92;97528.19;5027713;28;20420;-63
2023/09/11 03:26:16;;;;;;;9.00;7.30;;;19.90;66.80;;;21.78;49.61;97527.59;5017120;28;20057;-63
2023/09/11 03:28:51;;;;;;;8.48;7.22;;;19.90;67.50;;;21.74;50.07;97538.06;5032103;28;20045;-63
2023/09/11 03:31:23;;;;;;;10.70;6.90;;;19.90;67.20;;;21.73;49.98;97533.72;5014858;28;20050;-63
2023/09/11 03:33:52;;;;;;;8.65;7.20;;;19.90;66.90;;;21.72;50.06;97526.66;5014444;28;20053;-63
2023/09/11 03:36:20;;;;;;;8.43;6.88;;;19.90;67.00;;;21.70;49.87;97527.94;5010268;28;20501;-63
2023/09/11 03:38:48;;;;;;;10.23;6.88;;;19.90;67.00;;;21.66;50.28;97532.19;5032767;28;20057;-63
2023/09/11 03:41:17;;;;;;;8.10;6.90;;;19.70;67.50;;;21.61;50.24;97527.47;5024898;28;20045;-63
2023/09/11 03:43:45;;;;;;;8.43;6.35;;;19.80;67.60;;;21.58;50.51;97523.34;5019706;28;20057;-63
2023/09/11 03:46:14;;;;;;;8.68;7.35;;;19.80;67.70;;;21.57;50.05;97531.72;5005705;28;20064;-63
2023/09/11 03:48:44;;;;;;;7.97;6.80;;;19.70;67.70;;;21.56;50.21;97525.47;5055854;28;20049;-63
2023/09/11 03:51:14;;;;;;;7.95;7.03;;;19.80;67.70;;;21.56;50.26;97528.19;5020994;28;20052;-63
2023/09/11 03:53:43;;;;;;;10.30;6.38;;;19.80;67.60;;;21.52;50.12;97526.16;5035891;28;20053;-63
2023/09/11 03:56:14;;;;;;;8.07;6.30;;;19.70;67.60;;;21.51;50.33;97528.03;5023331;28;20412;-63
2023/09/11 03:58:46;;;;;;;8.40;6.63;;;19.80;67.80;;;21.50;50.76;97523.72;5019840;28;20038;-64
2023/09/11 04:01:16;;;;;;;;;;;19.80;68.00;;;21.48;50.57;97522.25;5023305;28;20046;-64
2023/09/11 04:03:44;;;;;;;8.70;6.88;;;19.70;69.70;;;21.50;50.34;97523.72;5035705;28;19925;-64
2023/09/11 04:06:12;;;;;;;8.35;6.80;;;19.60;68.50;;;21.46;50.49;97522.53;5016448;28;20046;-64
2023/09/11 04:08:40;;;;;;;10.15;7.18;;;19.60;68.80;;;21.45;50.83;97520.88;5018193;28;20513;-63
2023/09/11 04:11:08;;;;;;;9.02;7.00;;;19.60;68.30;;;21.44;50.72;97516.50;5030066;27;20048;-64
2023/09/11 04:13:35;;;;;;;9.10;7.60;;;19.70;68.50;;;21.39;50.62;97519.88;5013014;28;20056;-64
2023/09/11 04:16:03;;;;;;;9.13;6.95;;;19.60;68.80;;;21.35;50.86;97516.00;5011721;28;20060;-63
2023/09/11 04:18:31;;;;;;;8.52;6.45;;;19.60;68.90;;;21.34;50.83;97514.31;5028620;28;20041;-64
2023/09/11 04:21:03;;;;;;;8.27;7.47;;;19.50;68.90;;;21.33;51.33;97517.28;5026904;28;20425;-63
2023/09/11 04:23:33;;;;;;;7.97;6.95;;;19.50;69.60;;;21.31;51.26;97520.22;5016741;28;20045;-64
2023/09/11 04:26:01;;;;;;;9.82;7.00;;;19.50;69.40;;;21.30;51.06;97523.97;5018415;28;20934;-63
2023/09/11 04:28:29;;;;;;;9.63;7.53;;;19.50;69.40;;;21.29;51.23;97519.63;5021187;28;20041;-63
2023/09/11 04:30:56;;;;;;;9.30;6.97;;;19.50;69.40;;;21.28;51.57;97517.16;5010986;28;20073;-64
2023/09/11 04:33:27;;;;;;;12.38;7.75;;;19.50;69.50;;;21.25;51.56;97518.47;5035651;28;20412;-63
2023/09/11 04:35:55;;;;;;;10.38;7.78;;;19.40;69.60;;;21.22;51.46;97514.31;5010242;28;20056;-64
2023/09/11 04:38:23;;;;;;;9.80;7.78;;;19.40;69.70;;;21.20;51.52;97512.91;5034246;28;20046;-64
2023/09/11 04:40:59;;;;;;;10.15;7.13;;;19.40;69.80;;;21.19;51.80;97512.09;5017610;28;20050;-64
2023/09/11 04:43:29;;;;;;;9.52;6.68;;;19.50;70.00;;;21.20;51.66;97510.19;5018498;28;20052;-65
2023/09/11 04:45:57;;;;;;;8.52;7.07;;;19.50;69.60;;;21.19;51.83;97511.25;5017264;28;20050;-65
2023/09/11 04:48:25;;;;;;;8.65;6.95;;;19.50;69.80;;;21.19;51.85;97508.53;5033053;28;20050;-65
2023/09/11 04:50:52;;;;;;;12.23;7.10;;;19.40;69.70;;;21.18;51.60;97506.91;5031971;28;20046;-65
2023/09/11 04:53:20;;;;;;;9.85;7.55;;;19.50;70.00;;;21.17;51.89;97516.06;5020743;28;20093;-66
2023/09/11 04:55:48;;;;;;;10.30;7.70;;;19.40;70.10;;;21.14;51.89;97519.25;5018998;28;20046;-65
2023/09/11 04:58:16;;;;;;;12.18;7.55;;;19.30;70.50;;;21.10;51.88;97524.31;4999701;28;20409;-65
2023/09/11 05:00:44;;;;;;;7.93;7.13;;;19.30;70.80;;;21.10;51.92;97526.19;5012517;28;20038;-64
2023/09/11 05:03:12;;;;;;;10.48;8.15;;;19.30;71.00;;;21.08;52.02;97521.00;5010985;28;20037;-65
2023/09/11 05:05:41;;;;;;;10.15;8.30;;;19.30;71.00;;;21.05;52.64;97521.44;5021030;28;20064;-65
2023/09/11 05:08:10;;;;;;;9.95;7.50;;;19.20;71.40;;;21.02;52.66;97520.03;5021250;28;20515;-65
2023/09/11 05:10:43;;;;;;;8.88;7.22;;;19.20;71.70;;;21.01;52.70;97521.13;5019230;28;20523;-65
2023/09/11 05:13:14;;;;;;;10.82;7.68;;;19.20;72.10;;;20.99;52.62;97527.78;5016391;28;20038;-65
2023/09/11 05:15:42;;;;;;;9.40;8.05;;;19.20;71.90;;;20.99;52.46;97525.09;5008800;28;20046;-65
2023/09/11 05:18:13;;;;;;;10.45;7.38;;;19.20;71.90;;;21.00;52.91;97537.56;5019151;28;20041;-65
2023/09/11 05:20:41;;;;;;;11.77;7.57;;;19.20;72.20;;;20.99;53.02;97528.63;5019202;28;20038;-65
2023/09/11 05:23:09;;;;;;;11.35;9.07;;;19.20;72.10;;;20.97;52.72;97528.03;5016932;27;20497;-65
2023/09/11 05:25:37;;;;;;;10.75;6.82;;;19.20;72.10;;;20.97;52.96;97538.84;5016217;28;20053;-65
2023/09/11 05:28:05;;;;;;;12.38;7.88;;;19.20;72.30;;;20.97;53.06;97533.44;5019482;28;20053;-64
2023/09/11 05:30:33;;;;;;;12.10;8.80;;;19.30;72.40;;;20.98;53.05;97537.00;5019404;28;20057;-64
2023/09/11 05:33:01;;;;;;;10.63;8.07;;;19.20;72.30;;;21.01;53.09;97533.81;5019874;28;20046;-64
2023/09/11 05:35:28;;;;;;;11.18;8.75;;;19.30;72.30;;;21.02;52.94;97540.88;5020355;28;20048;-64
2023/09/11 05:37:56;;;;;;;9.70;7.95;;;19.30;72.50;;;21.04;53.16;97539.59;5019161;28;20041;-64
2023/09/11 05:40:24;;;;;;;9.45;7.80;;;19.40;72.20;;;21.06;53.37;97538.53;5001145;28;20412;-64
2023/09/11 05:42:51;;;;;;;8.77;7.68;;;19.40;72.40;;;21.09;53.09;97541.59;5016243;28;20068;-63
2023/09/11 05:45:19;;;;;;;9.77;8.13;;;19.40;72.10;;;21.10;53.45;97545.94;5020230;28;20046;-64
2023/09/11 05:47:47;;;;;;;9.45;7.43;;;19.50;72.10;;;21.15;53.34;97543.38;5020526;28;20042;-67
2023/09/11 05:50:17;;;;;;;8.10;7.30;;;19.50;71.90;;;21.18;53.37;97539.38;5046002;28;20049;-68
2023/09/11 05:52:44;;;;;;;9.95;7.75;;;19.50;72.10;;;21.21;53.32;97553.28;5035881;28;20044;-68
2023/09/11 05:55:12;;;;;;;10.55;8.40;;;19.60;71.80;;;21.24;53.51;97544.69;5018510;28;20045;-68
2023/09/11 05:58:05;;;;;;;10.10;7.90;;;19.70;71.80;;;21.26;53.20;97540.94;5020020;27;20064;-68
2023/09/11 06:00:33;;;;;;;9.23;8.32;;;19.70;72.30;;;21.33;53.28;97547.91;5020618;28;20044;-66
2023/09/11 06:03:00;;;;;;;9.63;7.72;;;19.70;71.90;;;21.36;53.04;97542.00;5017981;28;20045;-65
2023/09/11 06:05:31;;;;;;;11.90;9.18;;;19.80;71.70;;;21.41;53.54;97544.03;5031879;28;20057;-67
2023/09/11 06:07:58;;;;;;;8.25;7.35;;;19.80;71.80;;;21.43;53.12;97550.88;5016371;28;20049;-65
2023/09/11 06:10:26;;;;;;;10.88;8.68;;;19.90;71.70;;;21.48;53.12;97543.94;5019793;28;20042;-66
2023/09/11 06:12:54;;;;;;;10.07;7.88;;;19.90;71.60;;;21.54;53.43;97548.41;5018883;28;20042;-65
2023/09/11 06:15:24;;;;;;;10.75;8.43;;;20.00;71.40;;;21.57;53.22;97543.34;5004071;28;20042;-65
2023/09/11 06:17:52;;;;;;;12.13;8.40;;;20.10;71.70;;;21.62;53.27;97548.91;5019655;28;20039;-66
2023/09/11 06:20:21;;;;;;;10.63;9.13;;;20.10;71.60;;;21.66;53.27;97551.97;5019772;28;20436;-66
2023/09/11 06:22:50;;;;;;;9.82;8.00;;;20.10;71.80;;;21.71;53.50;97553.97;5019313;28;20052;-68
2023/09/11 06:25:18;;;;;;;11.43;8.68;;;20.20;71.50;;;21.75;53.36;97556.00;5019772;28;20048;-66
2023/09/11 06:27:46;;;;;;;8.90;7.97;;;20.30;71.40;;;21.80;53.61;97557.97;5019625;28;20045;-66
2023/09/11 06:30:14;;;;;;;8.98;8.07;;;20.40;71.00;;;21.88;53.26;97564.94;5015332;28;20049;-66
2023/09/11 06:32:42;;;;;;;9.93;7.68;;;20.50;70.80;;;21.94;53.43;97566.69;5016115;28;20524;-65
2023/09/11 06:35:10;;;;;;;9.77;8.32;;;20.60;70.30;;;21.98;53.02;97562.44;5018356;28;20049;-65
2023/09/11 06:37:38;;;;;;;8.95;6.88;;;20.60;69.90;;;22.04;52.95;97564.22;5019776;28;20046;-67
2023/09/11 06:40:07;;;;;;;11.27;7.13;;;20.70;69.90;;;22.10;52.70;97567.84;5015426;28;20500;-68
2023/09/11 06:42:35;;;;;;;10.85;7.80;;;20.80;69.50;;;22.16;52.99;97566.94;5040301;28;20045;-68
2023/09/11 06:45:04;;;;;;;10.18;8.07;;;20.80;69.50;;;22.19;53.12;97556.41;5034231;28;20060;-69
2023/09/11 06:47:32;;;;;;;9.73;8.45;;;20.90;70.10;;;22.26;53.12;97555.53;5026059;28;20045;-69
2023/09/11 06:50:00;;;;;;;11.77;8.45;;;20.90;70.20;;;22.31;53.20;97552.91;5038023;28;20045;-70
2023/09/11 06:52:28;;;;;;;9.73;8.30;;;21.00;70.70;;;22.33;53.40;97557.03;5020062;28;20090;-69
2023/09/11 06:54:55;;;;;;;10.73;8.88;;;21.00;70.80;;;22.38;53.66;97561.72;5026203;28;20038;-69
2023/09/11 06:57:23;;;;;;;9.95;8.50;;;21.00;71.40;;;22.41;53.67;97556.66;5039718;28;20042;-70
2023/09/11 06:59:53;;;;;;;9.95;8.38;;;21.10;71.30;;;22.44;53.48;97555.34;5046832;28;20049;-68
2023/09/11 07:02:20;;;;;;;13.73;8.77;;;21.10;71.40;;;22.48;53.88;97547.56;5024253;28;20524;-69
2023/09/11 07:04:48;;;;;;;9.80;8.70;;;21.10;71.30;;;22.50;53.79;97554.38;5015299;28;20054;-70
2023/09/11 07:07:16;;;;;;;9.70;8.27;;;21.10;71.70;;;22.54;53.83;97552.00;5017510;28;20086;-69
2023/09/11 07:09:43;;;;;;;13.40;9.10;;;21.20;71.60;;;22.59;53.65;97560.28;5018700;28;20048;-69
2023/09/11 07:12:11;;;;;;;13.57;8.35;;;21.20;71.40;;;22.63;53.75;97564.16;5000274;28;20064;-69
2023/09/11 07:14:39;;;;;;;11.48;9.15;;;21.30;71.50;;;22.65;53.97;97559.31;5017640;28;20382;-69
2023/09/11 07:17:06;;;;;;;12.60;9.18;;;21.30;71.60;;;22.69;54.24;97557.75;5020510;28;20046;-70
2023/09/11 07:19:34;;;;;;;12.40;8.63;;;21.40;71.70;;;22.73;54.09;97555.38;5022592;28;20385;-69
2023/09/11 07:22:03;;;;;;;13.55;9.65;;;21.40;71.90;;;22.77;54.21;97553.84;5021905;28;20046;-70
2023/09/11 07:24:30;;;;;;;12.40;9.07;;;21.50;72.00;;;22.80;54.54;97551.47;5018623;28;20068;-71
2023/09/11 07:26:58;;;;;;;12.02;7.60;;;21.60;72.00;;;22.86;53.98;97557.00;5018934;28;20054;-70
2023/09/11 07:29:27;;;;;;;9.73;7.85;;;21.60;71.80;;;22.90;53.93;97558.97;5022527;28;20360;-70
2023/09/11 07:31:55;;;;;;;12.82;7.82;;;21.60;71.70;;;22.94;53.84;97562.03;5022509;28;20279;-70
2023/09/11 07:34:23;;;;;;;13.45;9.70;;;21.70;71.50;;;22.97;54.05;97556.94;5018480;28;20038;-71
2023/09/11 07:36:50;;;;;;;14.32;9.63;;;21.70;71.10;;;23.02;54.00;97561.63;5019064;28;20049;-70
2023/09/11 07:39:19;;;;;;;15.05;9.68;;;21.80;71.20;;;23.06;54.01;97568.25;5021457;28;20049;-69
2023/09/11 07:41:47;;;;;;;11.23;8.50;;;21.80;71.30;;;23.10;54.45;97560.44;5021013;28;20041;-68
2023/09/11 07:44:15;;;;;;;14.02;8.63;;;21.90;71.80;;;23.13;54.44;97563.50;5018802;28;20453;-69
2023/09/11 07:46:43;;;;;;;12.00;7.95;;;21.90;71.80;;;23.17;54.28;97563.84;5018888;28;20053;-69
2023/09/11 07:49:11;;;;;;;14.55;9.32;;;22.00;71.70;;;23.22;54.42;97568.53;5018815;28;20237;-69
2023/09/11 07:51:38;;;;;;;12.55;8.35;;;22.00;71.70;;;23.26;54.12;97565.06;5022006;28;20404;-69
2023/09/11 07:54:06;;;;;;;12.57;9.25;;;22.10;71.30;;;23.30;54.19;97560.81;5020810;28;20068;-69
2023/09/11 07:56:33;;;;;;;12.38;8.90;;;22.20;70.90;;;23.35;54.00;97560.88;5017575;28;20037;-69
2023/09/11 07:59:01;;;;;;;14.00;8.48;;;22.20;70.60;;;23.42;53.93;97565.34;5017661;28;20436;-69
2023/09/11 08:01:29;;;;;;;14.05;8.60;;;22.20;70.50;;;23.47;53.53;97568.16;5022237;28;20370;-69
2023/09/11 08:04:48;;;;;;;9.50;8.40;;;22.30;70.20;;;23.49;53.68;97566.81;5015017;28;20695;-69
2023/09/11 08:07:15;;;;;;;10.38;8.60;;;22.40;69.50;;;23.58;53.42;97565.34;5024000;28;20531;-69
2023/09/11 08:09:44;;;;;;;11.52;8.95;;;22.40;69.70;;;23.63;52.95;97571.94;5021712;28;20073;-69
2023/09/11 08:12:12;;;;;;;19.45;8.98;;;22.50;69.30;;;23.67;53.02;97570.38;5024174;28;20566;-70
2023/09/11 08:14:39;;;;;;;11.25;8.55;;;22.50;68.80;;;23.70;53.01;97576.13;5021947;28;20041;-69
2023/09/11 08:17:07;;;;;;;9.45;7.88;;;22.60;68.70;;;23.75;52.65;97570.78;5023370;28;20053;-69
2023/09/11 08:19:37;;;;;;;12.98;8.85;;;22.60;68.50;;;23.81;52.43;97576.31;5023892;28;20038;-68
2023/09/11 08:22:05;;;;;;;10.40;8.32;;;22.60;68.10;;;23.85;52.38;97577.50;5024168;28;20437;-68
2023/09/11 08:24:32;;;;;;;11.93;8.18;;;22.70;67.80;;;23.90;52.21;97580.28;5021435;28;20369;-69
2023/09/11 08:27:00;;;;;;;11.15;9.10;;;22.80;67.50;;;23.94;52.45;97581.41;5023630;28;20199;-68
2023/09/11 08:29:28;;;;;;;12.48;8.23;;;22.80;67.50;;;24.00;52.35;97579.59;5004638;28;20425;-70
2023/09/11 08:31:56;;;;;;;13.00;8.30;;;22.90;67.50;;;24.06;51.65;97581.31;5021891;28;20519;-69
2023/09/11 08:34:23;;;;;;;12.40;8.02;;;22.90;66.60;;;24.09;51.69;97576.22;5020509;28;20052;-67
2023/09/11 08:36:51;;;;;;;12.88;8.32;;;22.90;66.20;;;24.14;51.63;97583.63;5021556;28;20045;-68
2023/09/11 08:39:19;;;;;;;11.10;8.45;;;23.00;66.20;;;24.17;51.58;97583.13;5021558;28;20060;-68
2023/09/11 08:41:47;;;;;;;11.40;7.70;;;23.00;66.10;;;24.18;51.16;97587.50;5022672;28;20041;-68
2023/09/11 08:44:15;;;;;;;11.07;8.20;;;23.10;65.60;;;24.24;50.83;97570.16;5020865;28;20052;-68
2023/09/11 08:46:48;;;;;;;8.65;6.80;;;23.20;65.00;;;24.28;50.50;97578.66;5020484;28;20046;-68
2023/09/11 08:49:19;;;;;;;;;;;23.20;64.40;;;24.31;50.82;97570.81;5036941;28;20037;-69
2023/09/11 08:51:52;;;;;;;10.15;7.47;;;23.20;63.60;;;24.40;50.80;97568.47;5020334;28;19921;-69
2023/09/11 08:54:23;;;;;;;;;;;23.20;65.00;;;24.43;50.83;97576.13;5019449;28;20046;-69
2023/09/11 08:56:53;;;;;;;10.52;6.63;;;23.30;63.80;;;24.54;50.14;97579.84;5019594;28;19921;-68
2023/09/11 08:59:25;;;;;;;9.48;7.57;;;23.40;61.80;;;24.55;49.46;97570.59;5019568;28;20041;-69
2023/09/11 09:01:53;;;;;;;11.00;6.22;;;23.50;62.40;;;24.58;49.04;97572.81;5020089;28;20428;-68
2023/09/11 09:04:24;;;;;;;11.48;6.35;;;23.50;62.00;;;24.61;49.13;97571.50;5018644;28;20144;-69
2023/09/11 09:06:53;;;;;;;7.97;5.80;;;23.60;61.60;;;24.64;48.86;97571.81;5019324;28;20065;-68
2023/09/11 09:09:21;;;;;;;7.70;6.60;;;23.60;60.90;;;24.70;48.46;97570.78;5016502;28;20048;-68
2023/09/11 09:11:49;;;;;;;9.32;6.97;;;23.70;60.10;;;24.73;48.55;97556.66;5021392;28;20037;-68
2023/09/11 09:14:18;;;;;;;12.00;7.80;;;23.80;60.40;;;24.80;48.44;97563.81;5019427;28;20046;-68
2023/09/11 09:16:47;;;;;;;6.75;6.00;;;23.80;60.60;;;24.85;48.19;97561.97;5015674;28;20033;-69
2023/09/11 09:19:14;;;;;;;7.70;6.85;;;23.90;59.80;;;24.91;47.99;97562.84;5020697;28;20416;-68
2023/09/11 09:22:07;;;;;;;7.57;6.78;;;24.00;59.80;;;24.94;48.42;97560.44;5020857;28;20512;-70
2023/09/11 09:24:55;;;;;;;10.60;7.53;;;24.10;59.50;;;25.02;47.76;97567.31;5020433;28;20045;-69
2023/09/11 09:27:27;;;;;;;8.40;6.47;;;24.10;59.40;;;25.08;47.36;97560.84;5020702;28;20492;-69
2023/09/11 09:29:54;;;;;;;7.72;6.95;;;24.10;58.90;;;25.12;48.12;97561.16;5002519;28;20050;-69
2023/09/11 09:32:22;;;;;;;9.27;7.28;;;24.10;59.50;;;25.17;47.87;97560.41;5022147;28;20048;-68
2023/09/11 09:34:54;;;;;;;7.93;6.82;;;24.20;59.20;;;25.22;47.81;97564.03;5020480;28;20386;-68
2023/09/11 09:37:22;;;;;;;11.07;8.07;;;24.30;59.40;;;25.28;48.07;97559.44;5021218;28;20045;-68
2023/09/11 09:39:50;;;;;;;8.80;7.50;;;24.40;59.30;;;25.32;47.76;97552.41;5016814;28;20046;-68
2023/09/11 09:42:18;;;;;;;11.80;7.43;;;24.40;59.00;;;25.35;47.74;97554.59;5020899;28;20045;-69
2023/09/11 09:44:55;;;;;;;7.85;6.63;;;24.40;58.90;;;25.38;47.30;97545.06;5018652;28;20058;-69
2023/09/11 09:47:23;;;;;;;13.77;7.63;;;24.50;58.60;;;25.41;47.34;97559.00;5006246;28;20064;-68
2023/09/11 09:49:52;;;;;;;8.18;7.28;;;24.50;59.00;;;25.45;47.71;97548.41;5022358;28;20048;-68
2023/09/11 09:52:30;;;;;;;9.40;7.32;;;24.40;59.30;;;25.47;47.40;97554.44;5021644;28;20044;-69
2023/09/11 09:55:02;;;;;;;12.25;7.15;;;24.50;58.10;;;25.51;47.16;97541.91;5020697;28;20439;-69
2023/09/11 09:57:30;;;;;;;8.45;7.35;;;24.60;58.20;;;25.60;46.97;97545.00;5021545;28;20072;-69
2023/09/11 10:00:00;;;;;;;10.00;7.15;;;24.60;58.40;;;25.66;46.46;97542.03;5021166;28;20418;-69
2023/09/11 10:02:32;;;;;;;;;;;24.70;57.90;;;25.71;46.91;97536.63;5022622;28;20053;-69
2023/09/11 10:05:07;;;;;;;9.10;6.40;;;24.70;56.80;;;25.82;46.41;97533.97;5020436;28;19925;-69
2023/09/11 10:07:44;;;;;;;10.00;6.80;;;24.80;57.00;;;25.84;45.94;97529.09;5019492;28;20056;-69
2023/09/11 10:10:23;;;;;;;8.88;6.57;;;24.80;56.90;;;25.86;45.68;97525.03;5018703;28;20135;-69
2023/09/11 10:13:12;;;;;;;6.95;5.68;;;24.90;55.70;;;25.85;43.48;97528.00;5016219;28;20049;-68
2023/09/11 10:15:43;;;;;;;8.45;6.05;;;25.00;51.10;;;25.93;43.88;97531.09;5019612;28;20037;-68
2023/09/11 10:18:13;;;;;;;6.93;5.95;;;25.10;53.90;;;26.02;43.83;97525.16;5018747;28;20098;-68
2023/09/11 10:20:41;;;;;;;7.38;5.78;;;25.10;53.70;;;26.08;43.77;97526.81;5016579;28;20049;-68
2023/09/11 10:23:09;;;;;;;12.48;6.00;;;25.10;54.00;;;26.15;43.14;97521.13;5016046;28;20045;-68
2023/09/11 10:25:45;;;;;;;7.00;5.78;;;25.20;52.90;;;26.20;42.70;97510.25;5017553;28;20054;-68
2023/09/11 10:28:34;;;;;;;7.78;4.93;;;25.20;51.10;;;26.27;42.53;97514.38;5018769;28;20477;-68